Aérodrome :
LOGIN :

S'inscrire | Disclaimer

   EN    FR    IT 

 










Légende :    VFR   VFR Marginal   IFR   IFR Intensif   IFR Très Intensif
Visi : 
Plafond : 
>= 8 km
>= 3000ft
5 à 8 km
1000 à 3000 ft
1500m à 5 km
500 à 1000 ft
800 à 1500m
200 à 500 ft
< 800m
< 200 ft
Symboles :   Orages  Brouillard  Fortes neiges  Fortes précipitations  Vent > 20 kt
SIGMETs :   Divers  Orages  Givrage  Turbulence  Onde Orograph.  Cendres Volcan.






- Altitude de l'aérodrome : 291 ft
- Code IATA : ORY


LFPO - Paris-Orly

DERNIER METAR :
  • 301000Z 25010KT 3000 -DZ BR BKN008 OVC028 05/04 Q1026 TEMPO 2000 DZ BNK007

METARs EXPIRÉS :
  • 300930Z 25008KT 9000 BKN008 OVC028 05/04 Q1026 NOSIG
  • 300900Z 25010KT 7000 BKN008 OVC031 05/04 Q1026 NOSIG
  • 300830Z 24011KT 6000 -DZ BKN008 OVC036 05/03 Q1026 NOSIG
  • 300816Z 25011KT 8000 -DZ BKN008 OVC036 05/03 Q1026 NOSIG
  • 300730Z 26012KT 8000 BKN008 OVC036 04/03 Q1026 NOSIG

TAF TAF LFPO
Valide du 30 à 06h jusqu'au 31 à 12h UTC


300500Z 3006/3112 23006KT 9999 BKN030
TEMPO 3006/3016 4000 -RA BKN012
PROB40
TEMPO 3006/3016 2000 -DZ BKN007
BECMG 3016/3019 CAVOK
TEMPO 3021/3111 3000 BR
PROB40
TEMPO 3023/3109 0600 FG VV///
ATIS : +33 1 49 75 65 80



MET'MAP, la Météo Aéronautique d'un coup d'oeil ! - Copyright ORBIFLY Décembre 2007 - Disclaimer

ORBIFLY MET'MAP TEAM :

Programmation & Développement : Alexandra Zaïnal
Sur une idée originale de : Baudouin d'Aumeries
Soutien technique & logistique : Manuel Goepfert
Assistance : Marc-Olivier Méhu




SOURCES & CREDITS :

   NOAA